EW3600 Weather Reports


time (UTC)temp
F
wind
direction
speed
knots
gust
knots
rain 1hr
in
rain 24hr
in
rain mn
in
humidity
%
barometer
mb
20260906231515 76 191 7.0 15.6 0.00 0.00 0.00 32 1003.2
20260906230015 77 159 9.6 16.5 0.00 0.00 0.00 30 1003.3
20260906224556 76 184 10.4 13.9 0.00 0.00 0.00 30 1003.3
20260906223055 77 161 13.9 18.2 0.00 0.00 0.00 28 1003.5
20260906221535 77 186 13.9 20.9 0.00 0.00 0.00 28 1003.7
20260906220034 78 181 13.0 20.9 0.00 0.00 0.00 25 1003.7
20260906214513 77 174 13.9 20.9 0.00 0.00 0.00 25 1003.9
20260906213011 77 255 16.5 23.5 0.00 0.00 0.00 24 1004.0
20260906211554 77 174 16.5 24.3 0.00 0.00 0.00 23 1004.0
20260906210055 77 181 20.0 28.7 0.00 0.00 0.00 23 1004.3
20260906204554 77 165 20.0 27.8 0.00 0.00 0.00 21 1004.6
20260906203032 79 201 18.2 26.9 0.00 0.00 0.00 20 1004.6
20260906201512 78 212 15.6 24.3 0.00 0.00 0.00 20 1004.7
20260906200008 79 152 14.8 27.8 0.00 0.00 0.00 21 1004.8
20260906194548 78 217 15.6 31.3 0.00 0.00 0.00 23 1004.8
20260906193046 78 249 15.6 23.5 0.00 0.00 0.00 23 1004.8
20260906191529 78 195 12.2 26.1 0.00 0.00 0.00 25 1004.8
20260906190021 77 290 16.5 25.2 0.00 0.00 0.00 24 1005.2
20260906184501 77 226 16.5 26.1 0.00 0.00 0.00 24 1005.6
20260906183058 77 187 19.1 25.2 0.00 0.00 0.00 24 1005.8
20260906181555 77 205 16.5 25.2 0.00 0.00 0.00 23 1006.1
20260906180054 76 203 16.5 27.8 0.00 0.00 0.00 22 1006.3
20260906174535 76 159 16.5 26.1 0.00 0.00 0.00 23 1006.6
20260906173012 75 198 16.5 25.2 0.00 0.00 0.00 21 1006.8
20260906171511 74 188 14.8 20.9 0.00 0.00 0.00 23 1006.9
20260906170100 74 195 13.0 20.0 0.00 0.00 0.00 27 1007.1
20260906164552 74 184 13.9 19.1 0.00 0.00 0.00 27 1007.2
20260906163042 73 143 13.0 17.4 0.00 0.00 0.00 28 1007.3
20260906161533 72 163 9.6 14.8 0.00 0.00 0.00 28 1007.5
20260906160015 72 154 6.1 13.0 0.00 0.00 0.00 28 1007.6
20260906154519 71 136 7.0 11.3 0.00 0.00 0.00 29 1007.7
20260906153058 70 150 8.7 11.3 0.00 0.00 0.00 31 1007.9
20260906151601 69 129 5.2 7.0 0.00 0.00 0.00 33 1007.8
20260906150038 67 108 2.6 4.3 0.00 0.00 0.00 35 1007.9
20260906144538 65 77 0.0 1.7 0.00 0.00 0.00 41 1008.0
20260906143028 63 34 0.9 1.7 0.00 0.00 0.00 39 1007.9
20260906141516 60 73 0.0 1.7 0.00 0.00 0.00 43 1007.7
20260906140059 59 37 0.0 1.7 0.00 0.00 0.00 47 1007.5
20260906134557 59 85 0.0 0.9 0.00 0.00 0.00 41 1007.2
20260906133036 0 0.0 0.0 0.00 0.00 0.00 1007.1
20260906131542 0 0.0 0.0 0.00 0.00 0.00 1007.0
20260906130010 0 0.0 0.0 0.00 0.00 0.00 1007.0
20260906124506 0 0.0 0.0 0.00 0.00 0.00 1006.9
20260906123044 0 0.0 0.0 0.00 0.00 0.00 1006.8
20260906121540 0 0.0 0.0 0.00 0.00 0.00 1006.7
20260906120018 0 0.0 0.0 0.00 0.00 0.00 1006.8
20260906114515 0 0.0 0.0 0.00 0.00 0.00 1006.7
20260906113059 0 0.0 0.0 0.00 0.00 0.00 1006.7
20260906111604 0 0.0 0.0 0.00 0.00 0.00 1006.7
20260906110026 0 0.0 0.0 0.00 0.00 0.00 1006.7
20260906104534 0 0.0 0.0 0.00 0.00 0.00 1006.6
20260906103001 0 0.0 0.0 0.00 0.00 0.00 1006.5
20260906101557 0 0.0 0.0 0.00 0.00 0.00 1006.6
20260906100035 0 0.0 0.0 0.00 0.00 0.00 1006.4
20260906094537 0 0.0 0.0 0.00 0.00 0.00 1006.3
20260906093008 0 0.0 0.0 0.00 0.00 0.00 1006.3
20260906091507 0 0.0 0.0 0.00 0.00 0.00 1006.3
20260906090043 0 0.0 0.0 0.00 0.00 0.00 1006.4
20260906084548 0 0.0 0.0 0.00 0.00 0.00 1006.3
20260906083018 0 0.0 0.0 0.00 0.00 0.00 1006.5
20260906081514 0 0.0 0.0 0.00 0.00 0.00 1006.6
20260906080059 0 0.0 0.0 0.00 0.00 0.00 1006.6
20260906074551 57 90 0.0 0.0 0.00 0.00 0.00 45 1006.8
20260906073039 56 90 0.0 0.9 0.00 0.00 0.00 46 1006.7
20260906071537 54 91 0.9 2.6 0.00 0.00 0.00 52 1006.6
20260906070014 53 41 0.0 1.7 0.00 0.00 0.00 62 1006.5
20260906064514 55 83 0.0 0.0 0.00 0.00 0.00 49 1006.4
20260906063057 55 83 0.0 0.0 0.00 0.00 0.00 48 1006.3
20260906061551 57 83 0.0 0.0 0.00 0.00 0.00 44 1006.2
20260906060034 58 84 0.0 1.7 0.00 0.00 0.00 41 1006.1
20260906054528 58 8 0.0 0.9 0.00 0.00 0.00 43 1006.1
20260906053010 58 8 0.0 0.9 0.00 0.00 0.00 50 1006.3
20260906051509 58 8 0.0 0.0 0.00 0.00 0.00 46 1006.3
20260906050048 59 8 0.0 0.0 0.00 0.00 0.00 47 1006.4
20260906044547 60 8 0.0 1.7 0.00 0.00 0.00 44 1006.4
20260906043032 60 354 0.9 2.6 0.00 0.00 0.00 45 1006.4
20260906041526 62 319 0.9 1.7 0.00 0.00 0.00 40 1006.4
20260906040009 62 274 0.9 2.6 0.00 0.00 0.00 39 1006.4
20260906034506 63 56 0.9 2.6 0.00 0.00 0.00 37 1006.3
20260906033046 64 47 0.0 3.5 0.00 0.00 0.00 37 1006.3
20260906031547 64 85 0.9 3.5 0.00 0.00 0.00 38 1006.3
20260906030027 63 89 1.7 3.5 0.00 0.00 0.00 39 1006.3
20260906024526 64 71 1.7 3.5 0.00 0.00 0.00 39 1006.3
20260906023006 64 73 0.9 2.6 0.00 0.00 0.00 40 1006.1
20260906021505 65 119 1.7 4.3 0.00 0.00 0.00 41 1006.0
20260906020048 68 121 2.6 3.5 0.00 0.00 0.00 37 1005.9
20260906014551 72 181 3.5 7.0 0.00 0.00 0.00 27 1005.9
20260906013019 75 175 4.3 7.8 0.00 0.00 0.00 25 1006.0
20260906011533 76 176 5.2 7.8 0.00 0.00 0.00 23 1006.0
20260906010007 77 256 5.2 12.2 0.00 0.00 0.00 23 1006.0
20260906004507 78 230 8.7 16.5 0.00 0.00 0.00 22 1005.9
20260906003005 78 304 8.7 13.9 0.00 0.00 0.00 21 1006.0
20260906001504 79 231 12.2 18.2 0.00 0.00 0.00 20 1005.9
20260906000004 79 225 10.4 16.5 0.00 0.00 0.00 20 1005.9
20260905234503 79 248 13.0 20.0 0.00 0.00 0.00 19 1005.9
20260905233002 79 224 14.8 23.5 0.00 0.00 0.00 20 1006.0